createdAt,value
2017-03-24T00:00:24.401Z,1019.91
2017-03-24T00:01:24.420Z,1019.9
2017-03-24T00:02:24.438Z,1019.94
2017-03-24T00:03:24.457Z,1019.92
2017-03-24T00:04:24.475Z,1019.9
2017-03-24T00:05:24.493Z,1019.94
2017-03-24T00:06:24.518Z,1019.91
2017-03-24T00:08:24.548Z,1019.94
2017-03-24T00:09:24.567Z,1019.95
2017-03-24T00:10:24.585Z,1019.9
2017-03-24T00:11:24.609Z,1019.91
2017-03-24T00:12:24.622Z,1019.92
2017-03-24T00:13:24.641Z,1019.91
2017-03-24T00:14:24.687Z,1019.92
2017-03-24T00:15:24.678Z,1019.95
2017-03-24T00:16:24.696Z,1019.96
2017-03-24T00:17:24.714Z,1019.94
2017-03-24T00:18:24.733Z,1019.91
2017-03-24T00:19:24.751Z,1019.92
2017-03-24T00:20:24.769Z,1019.91
2017-03-24T00:21:24.788Z,1019.9
2017-03-24T00:22:24.806Z,1019.91
2017-03-24T00:24:24.844Z,1019.85
2017-03-24T00:25:24.862Z,1019.87
2017-03-24T00:26:24.880Z,1019.84
2017-03-24T00:27:24.899Z,1019.83
2017-03-24T00:28:24.918Z,1019.88
2017-03-24T00:29:24.935Z,1019.84
2017-03-24T00:30:24.953Z,1019.89
2017-03-24T00:31:24.971Z,1019.91
2017-03-24T00:32:24.991Z,1019.92
2017-03-24T00:33:25.009Z,1019.98
2017-03-24T00:34:25.028Z,1019.93
2017-03-24T00:35:25.048Z,1019.95
2017-03-24T00:36:25.066Z,1019.99
2017-03-24T00:37:25.082Z,1019.96
2017-03-24T00:39:25.121Z,1020.01
2017-03-24T00:40:25.139Z,1020.06
2017-03-24T00:41:25.158Z,1020.06
2017-03-24T00:42:25.177Z,1020.1
2017-03-24T00:43:25.195Z,1020.11
2017-03-24T00:44:25.213Z,1020.08
2017-03-24T00:45:25.231Z,1020.09
2017-03-24T00:46:25.250Z,1020.13
2017-03-24T00:47:25.267Z,1020.08
2017-03-24T00:48:25.286Z,1020.11
2017-03-24T00:49:25.305Z,1020.13
2017-03-24T00:50:25.323Z,1020.12
2017-03-24T00:51:25.341Z,1020.12
2017-03-24T00:52:25.360Z,1020.09
2017-03-24T00:53:25.423Z,1020.08
2017-03-24T00:54:25.397Z,1020.16
2017-03-24T00:55:25.415Z,1020.14
2017-03-24T00:56:25.433Z,1020.16
2017-03-24T00:57:25.452Z,1020.19
2017-03-24T00:58:25.470Z,1020.18
2017-03-24T00:59:25.489Z,1020.23
2017-03-24T01:00:25.607Z,1020.22
2017-03-24T01:01:25.525Z,1020.22
2017-03-24T01:02:25.543Z,1020.22
2017-03-24T01:03:25.567Z,1020.17
2017-03-24T01:04:25.580Z,1020.22
2017-03-24T01:05:25.599Z,1020.2
2017-03-24T01:06:25.617Z,1020.2
2017-03-24T01:07:25.634Z,1020.24
2017-03-24T01:08:25.653Z,1020.24
2017-03-24T01:09:25.671Z,1020.29
2017-03-24T01:11:25.707Z,1020.37
2017-03-24T01:12:25.726Z,1020.35
2017-03-24T01:13:25.744Z,1020.31
2017-03-24T01:14:25.762Z,1020.35
2017-03-24T01:15:25.780Z,1020.36
2017-03-24T01:16:25.798Z,1020.35
2017-03-24T01:17:25.816Z,1020.38
2017-03-24T01:18:25.834Z,1020.37
2017-03-24T01:19:25.853Z,1020.35
2017-03-24T01:20:25.870Z,1020.32
2017-03-24T01:21:25.889Z,1020.36
2017-03-24T01:22:25.906Z,1020.36
2017-03-24T01:23:25.925Z,1020.36
2017-03-24T01:24:25.942Z,1020.34
2017-03-24T01:25:25.961Z,1020.36
2017-03-24T01:27:25.997Z,1020.38
2017-03-24T01:28:26.015Z,1020.38
2017-03-24T01:29:26.034Z,1020.38
2017-03-24T01:30:26.051Z,1020.41
2017-03-24T01:31:26.069Z,1020.42
2017-03-24T01:32:26.086Z,1020.42
2017-03-24T01:33:26.105Z,1020.47
2017-03-24T01:34:26.129Z,1020.45
2017-03-24T01:35:26.140Z,1020.47
2017-03-24T01:36:26.159Z,1020.47
2017-03-24T01:37:26.177Z,1020.49
2017-03-24T01:38:26.195Z,1020.5
2017-03-24T01:39:26.212Z,1020.52
2017-03-24T01:40:26.231Z,1020.56
2017-03-24T01:41:26.249Z,1020.52
2017-03-24T01:43:26.284Z,1020.52
2017-03-24T01:44:26.303Z,1020.56
2017-03-24T01:45:26.326Z,1020.57
2017-03-24T01:46:26.339Z,1020.59
2017-03-24T01:47:26.355Z,1020.61
2017-03-24T01:48:26.374Z,1020.61
2017-03-24T01:49:26.392Z,1020.63
2017-03-24T01:50:26.409Z,1020.63
2017-03-24T01:51:26.427Z,1020.66
2017-03-24T01:52:26.445Z,1020.69
2017-03-24T01:53:26.462Z,1020.7
2017-03-24T01:54:26.480Z,1020.7
2017-03-24T01:55:26.498Z,1020.7
2017-03-24T01:56:26.516Z,1020.76
2017-03-24T01:57:26.533Z,1020.77
2017-03-24T01:59:26.569Z,1020.76
2017-03-24T02:00:26.587Z,1020.82
2017-03-24T02:01:26.604Z,1020.85
2017-03-24T02:02:26.621Z,1020.92
2017-03-24T02:03:26.640Z,1020.88
2017-03-24T02:04:26.657Z,1020.91
2017-03-24T02:05:26.675Z,1020.91
2017-03-24T02:06:26.693Z,1020.92
2017-03-24T02:07:26.711Z,1020.91
2017-03-24T02:08:26.728Z,1020.95
2017-03-24T02:09:26.745Z,1020.97
2017-03-24T02:10:26.768Z,1020.94
2017-03-24T02:11:26.781Z,1020.95
2017-03-24T02:12:26.799Z,1020.91
2017-03-24T02:14:26.836Z,1020.95
2017-03-24T02:15:26.852Z,1020.97
2017-03-24T02:16:26.870Z,1020.98
2017-03-24T02:17:26.888Z,1021
2017-03-24T02:18:26.906Z,1020.98
2017-03-24T02:19:26.923Z,1021.03
2017-03-24T02:20:26.941Z,1021
2017-03-24T02:21:26.997Z,1021.1
2017-03-24T02:22:27.125Z,1021.11
2017-03-24T02:23:26.993Z,1021.11
2017-03-24T02:24:27.011Z,1021.14
2017-03-24T02:25:27.029Z,1021.11
2017-03-24T02:26:27.045Z,1021.1
2017-03-24T02:27:27.063Z,1021.09
2017-03-24T02:28:27.081Z,1021.08
2017-03-24T02:29:27.098Z,1021.11
2017-03-24T02:30:27.116Z,1021.08
2017-03-24T02:31:27.133Z,1021.12
2017-03-24T02:32:27.151Z,1021.15
2017-03-24T02:33:27.170Z,1021.14
2017-03-24T02:34:27.187Z,1021.12
2017-03-24T02:35:27.203Z,1021.1
2017-03-24T02:36:27.223Z,1021.14
2017-03-24T02:37:27.238Z,1021.12
2017-03-24T02:38:27.256Z,1021.14
2017-03-24T02:39:27.274Z,1021.16
2017-03-24T02:40:27.291Z,1021.19
2017-03-24T02:41:27.310Z,1021.2
2017-03-24T02:42:27.326Z,1021.22
2017-03-24T02:43:27.343Z,1021.23
2017-03-24T02:44:27.359Z,1021.24
2017-03-24T02:46:27.394Z,1021.25
2017-03-24T02:47:27.412Z,1021.26
2017-03-24T02:48:27.429Z,1021.31
2017-03-24T02:49:27.447Z,1021.31
2017-03-24T02:50:27.464Z,1021.37
2017-03-24T02:51:27.482Z,1021.33
2017-03-24T02:52:27.499Z,1021.39
2017-03-24T02:53:27.517Z,1021.36
2017-03-24T02:54:27.534Z,1021.41
2017-03-24T02:55:27.550Z,1021.46
2017-03-24T02:56:27.568Z,1021.44
2017-03-24T02:57:27.585Z,1021.5
2017-03-24T02:58:27.604Z,1021.5
2017-03-24T02:59:27.620Z,1021.47
2017-03-24T03:00:27.637Z,1021.51
2017-03-24T03:02:27.672Z,1021.47
2017-03-24T03:03:27.689Z,1021.46
2017-03-24T03:04:27.706Z,1021.49
2017-03-24T03:05:27.723Z,1021.49
2017-03-24T03:06:27.740Z,1021.53
2017-03-24T03:07:27.757Z,1021.55
2017-03-24T03:08:27.775Z,1021.54
2017-03-24T03:09:27.793Z,1021.56
2017-03-24T03:10:27.808Z,1021.57
2017-03-24T03:11:27.826Z,1021.58
2017-03-24T03:12:27.843Z,1021.6
2017-03-24T03:13:27.861Z,1021.64
2017-03-24T03:14:27.878Z,1021.61
2017-03-24T03:15:27.894Z,1021.58
2017-03-24T03:16:27.912Z,1021.61
2017-03-24T03:18:27.945Z,1021.61
2017-03-24T03:19:27.963Z,1021.65
2017-03-24T03:20:27.980Z,1021.6
2017-03-24T03:21:27.997Z,1021.59
2017-03-24T03:22:28.013Z,1021.67
2017-03-24T03:23:28.038Z,1021.66
2017-03-24T03:24:28.049Z,1021.67
2017-03-24T03:25:28.064Z,1021.69
2017-03-24T03:26:28.083Z,1021.71
2017-03-24T03:27:28.100Z,1021.74
2017-03-24T03:28:28.116Z,1021.76
2017-03-24T03:29:28.133Z,1021.8
2017-03-24T03:30:28.150Z,1021.83
2017-03-24T03:31:28.167Z,1021.82
2017-03-24T03:32:28.183Z,1021.8
2017-03-24T03:34:28.218Z,1021.88
2017-03-24T03:35:28.235Z,1021.92
2017-03-24T03:36:28.251Z,1021.89
2017-03-24T03:37:28.268Z,1021.93
2017-03-24T03:38:28.286Z,1021.92
2017-03-24T03:39:28.302Z,1021.96
2017-03-24T03:40:28.319Z,1021.97
2017-03-24T03:41:28.335Z,1021.95
2017-03-24T03:42:28.353Z,1021.98
2017-03-24T03:43:28.369Z,1022.01
2017-03-24T03:44:28.387Z,1022.02
2017-03-24T03:45:28.403Z,1022.04
2017-03-24T03:46:28.421Z,1022.04
2017-03-24T03:47:28.437Z,1022.04
2017-03-24T03:49:28.472Z,1022.1
2017-03-24T03:50:28.488Z,1022.1
2017-03-24T03:51:28.505Z,1022.09
2017-03-24T03:52:28.523Z,1022.19
2017-03-24T03:53:28.540Z,1022.14
2017-03-24T03:54:28.555Z,1022.19
2017-03-24T03:55:28.572Z,1022.15
2017-03-24T03:56:28.588Z,1022.17
2017-03-24T03:57:28.604Z,1022.22
2017-03-24T03:58:28.623Z,1022.22
2017-03-24T03:59:28.639Z,1022.23
2017-03-24T04:00:28.656Z,1022.26
2017-03-24T04:01:28.672Z,1022.23
2017-03-24T04:02:28.690Z,1022.26
2017-03-24T04:03:28.707Z,1022.28
2017-03-24T04:04:28.724Z,1022.28
2017-03-24T04:05:28.739Z,1022.35
2017-03-24T04:06:28.757Z,1022.36
2017-03-24T04:07:28.773Z,1022.4
2017-03-24T04:08:28.790Z,1022.44
2017-03-24T04:09:28.807Z,1022.45
2017-03-24T04:10:28.824Z,1022.49
2017-03-24T04:11:28.840Z,1022.48
2017-03-24T04:12:28.856Z,1022.44
2017-03-24T04:13:28.874Z,1022.47
2017-03-24T04:14:28.889Z,1022.5
2017-03-24T04:15:28.907Z,1022.55
2017-03-24T04:16:28.924Z,1022.51
2017-03-24T04:17:28.941Z,1022.55
2017-03-24T04:18:28.958Z,1022.53
2017-03-24T04:19:28.973Z,1022.54
2017-03-24T04:21:29.008Z,1022.51
2017-03-24T04:22:29.024Z,1022.56
2017-03-24T04:23:29.040Z,1022.53
2017-03-24T04:24:29.056Z,1022.55
2017-03-24T04:25:29.073Z,1022.53
2017-03-24T04:26:29.090Z,1022.54
2017-03-24T04:27:29.107Z,1022.56
2017-03-24T04:28:29.123Z,1022.56
2017-03-24T04:29:29.140Z,1022.58
2017-03-24T04:30:29.156Z,1022.53
2017-03-24T04:31:29.173Z,1022.56
2017-03-24T04:32:29.190Z,1022.56
2017-03-24T04:33:29.207Z,1022.56
2017-03-24T04:34:29.223Z,1022.57
2017-03-24T04:35:29.240Z,1022.6
2017-03-24T04:37:29.273Z,1022.6
2017-03-24T04:38:29.291Z,1022.58
2017-03-24T04:39:29.306Z,1022.64
2017-03-24T04:40:29.324Z,1022.65
2017-03-24T04:41:29.367Z,1022.67
2017-03-24T04:42:29.355Z,1022.7
2017-03-24T04:43:29.372Z,1022.73
2017-03-24T04:44:29.389Z,1022.74
2017-03-24T04:45:29.405Z,1022.75
2017-03-24T04:46:29.422Z,1022.75
2017-03-24T04:47:29.439Z,1022.73
2017-03-24T04:48:29.455Z,1022.77
2017-03-24T04:49:29.471Z,1022.77
2017-03-24T04:50:29.489Z,1022.79
2017-03-24T04:51:29.505Z,1022.79
2017-03-24T04:53:29.538Z,1022.81
2017-03-24T04:54:29.555Z,1022.86
2017-03-24T04:55:29.573Z,1022.88
2017-03-24T04:56:29.588Z,1022.92
2017-03-24T04:57:29.605Z,1022.91
2017-03-24T04:58:29.621Z,1022.99
2017-03-24T04:59:29.638Z,1023
2017-03-24T05:00:29.654Z,1023.07
2017-03-24T05:01:29.670Z,1023.05
2017-03-24T05:02:29.687Z,1023.09
2017-03-24T05:03:29.704Z,1023.14
2017-03-24T05:04:29.721Z,1023.14
2017-03-24T05:05:29.737Z,1023.17
2017-03-24T05:06:29.754Z,1023.17
2017-03-24T05:07:29.770Z,1023.11
2017-03-24T05:09:29.804Z,1023.23
2017-03-24T05:10:29.821Z,1023.23
2017-03-24T05:11:29.836Z,1023.3
2017-03-24T05:12:29.853Z,1023.31
2017-03-24T05:13:29.871Z,1023.34
2017-03-24T05:14:29.886Z,1023.32
2017-03-24T05:15:29.903Z,1023.41
2017-03-24T05:16:29.919Z,1023.43
2017-03-24T05:17:29.937Z,1023.41
2017-03-24T05:18:29.953Z,1023.48
2017-03-24T05:19:29.970Z,1023.54
2017-03-24T05:20:29.986Z,1023.55
2017-03-24T05:21:30.004Z,1023.54
2017-03-24T05:22:30.020Z,1023.55
2017-03-24T05:24:30.055Z,1023.6
2017-03-24T05:25:30.072Z,1023.63
2017-03-24T05:26:30.087Z,1023.64
2017-03-24T05:27:30.104Z,1023.64
2017-03-24T05:28:30.121Z,1023.68
2017-03-24T05:29:30.137Z,1023.71
2017-03-24T05:30:30.154Z,1023.73
2017-03-24T05:31:30.172Z,1023.7
2017-03-24T05:32:30.187Z,1023.7
2017-03-24T05:33:30.205Z,1023.74
2017-03-24T05:34:30.222Z,1023.73
2017-03-24T05:35:30.239Z,1023.71
2017-03-24T05:36:30.254Z,1023.73
2017-03-24T05:37:30.272Z,1023.82
2017-03-24T05:38:30.289Z,1023.77
2017-03-24T05:39:30.306Z,1023.78
2017-03-24T05:40:30.323Z,1023.8
2017-03-24T05:41:30.340Z,1023.8
2017-03-24T05:42:30.358Z,1023.88
2017-03-24T05:43:30.374Z,1023.93
2017-03-24T05:44:30.392Z,1023.99
2017-03-24T05:45:30.409Z,1024.03
2017-03-24T05:46:30.427Z,1024.06
2017-03-24T05:47:30.444Z,1024.08
2017-03-24T05:48:30.461Z,1024.11
2017-03-24T05:49:30.480Z,1024.14
2017-03-24T05:50:30.499Z,1024.11
2017-03-24T05:51:30.515Z,1024.15
2017-03-24T05:52:30.534Z,1024.18
2017-03-24T05:53:30.553Z,1024.25
2017-03-24T05:54:30.571Z,1024.25
2017-03-24T05:56:30.608Z,1024.33
2017-03-24T05:57:30.628Z,1024.39
2017-03-24T05:58:30.647Z,1024.38
2017-03-24T05:59:30.668Z,1024.41
2017-03-24T06:00:30.690Z,1024.44
2017-03-24T06:01:30.707Z,1024.51
2017-03-24T06:02:30.727Z,1024.64
2017-03-24T06:03:30.749Z,1024.64
2017-03-24T06:04:30.770Z,1024.48
2017-03-24T06:05:30.790Z,1024.41
2017-03-24T06:06:30.812Z,1024.48
2017-03-24T06:07:30.834Z,1024.45
2017-03-24T06:08:30.858Z,1024.54
2017-03-24T06:09:30.879Z,1024.57
2017-03-24T06:10:30.902Z,1024.55
2017-03-24T06:12:30.950Z,1024.6
2017-03-24T06:13:30.972Z,1024.58
2017-03-24T06:14:30.996Z,1024.61
2017-03-24T06:15:31.021Z,1024.64
2017-03-24T06:16:31.045Z,1024.71
2017-03-24T06:17:31.069Z,1024.68
2017-03-24T06:18:31.094Z,1024.74
2017-03-24T06:19:31.119Z,1024.81
2017-03-24T06:20:31.144Z,1024.85
2017-03-24T06:21:31.169Z,1024.91
2017-03-24T06:22:31.196Z,1024.98
2017-03-24T06:23:31.222Z,1025.07
2017-03-24T06:24:31.246Z,1025.14
2017-03-24T06:25:31.273Z,1025.19
2017-03-24T06:26:31.299Z,1025.27
2017-03-24T06:28:31.354Z,1025.48
2017-03-24T06:29:31.378Z,1025.54
2017-03-24T06:30:31.406Z,1025.62
2017-03-24T06:31:31.432Z,1025.56
2017-03-24T06:32:31.458Z,1025.65
2017-03-24T06:33:31.486Z,1025.62
2017-03-24T06:34:31.513Z,1025.79
2017-03-24T06:35:31.539Z,1025.84
2017-03-24T06:36:31.567Z,1025.87
2017-03-24T06:37:31.594Z,1025.85
2017-03-24T06:38:31.620Z,1025.91
2017-03-24T06:39:31.648Z,1025.89
2017-03-24T06:40:31.675Z,1025.91
2017-03-24T06:41:31.703Z,1025.94
2017-03-24T06:42:31.730Z,1025.97
2017-03-24T06:44:31.787Z,1026
2017-03-24T06:45:31.815Z,1026
2017-03-24T06:46:31.842Z,1026.12
2017-03-24T06:47:31.870Z,1026.13
2017-03-24T06:48:31.898Z,1026.19
2017-03-24T06:49:31.926Z,1026.17
2017-03-24T06:50:31.955Z,1026.14
2017-03-24T06:51:31.988Z,1026.21
2017-03-24T06:52:32.012Z,1026.21
2017-03-24T06:53:32.041Z,1026.24
2017-03-24T06:54:32.070Z,1026.24
2017-03-24T06:55:32.098Z,1026.28
2017-03-24T06:56:32.127Z,1026.3
2017-03-24T06:57:32.156Z,1026.36
2017-03-24T06:59:32.215Z,1026.34
2017-03-24T07:00:32.243Z,1026.41
2017-03-24T07:01:32.274Z,1026.42
2017-03-24T07:02:32.302Z,1026.47
2017-03-24T07:03:32.332Z,1026.51
2017-03-24T07:04:32.360Z,1026.5
2017-03-24T07:05:32.389Z,1026.44
2017-03-24T07:06:32.419Z,1026.48
2017-03-24T07:07:32.448Z,1026.46
2017-03-24T07:08:32.478Z,1026.43
2017-03-24T07:09:32.508Z,1026.46
2017-03-24T07:10:32.537Z,1026.51
2017-03-24T07:11:32.569Z,1026.47
2017-03-24T07:12:32.597Z,1026.48
2017-03-24T07:13:32.626Z,1026.46
2017-03-24T07:14:32.656Z,1026.47
2017-03-24T07:15:32.687Z,1026.5
2017-03-24T07:16:32.718Z,1026.45
2017-03-24T07:17:32.748Z,1026.46
2017-03-24T07:18:32.777Z,1026.47
2017-03-24T07:19:32.807Z,1026.39
2017-03-24T07:20:32.838Z,1026.34
2017-03-24T07:21:32.868Z,1026.36
2017-03-24T07:22:32.898Z,1026.32
2017-03-24T07:23:32.929Z,1026.34
2017-03-24T07:24:32.959Z,1026.37
2017-03-24T07:25:32.995Z,1026.35
2017-03-24T07:26:33.020Z,1026.28
2017-03-24T07:27:33.051Z,1026.27
2017-03-24T07:28:33.084Z,1026.27
2017-03-24T07:29:33.113Z,1026.23
2017-03-24T07:31:33.175Z,1026.27
2017-03-24T07:32:33.219Z,1026.29
2017-03-24T07:33:33.236Z,1026.31
2017-03-24T07:34:33.268Z,1026.32
2017-03-24T07:35:33.298Z,1026.3
2017-03-24T07:36:33.329Z,1026.29
2017-03-24T07:37:33.360Z,1026.29
2017-03-24T07:38:33.390Z,1026.26
2017-03-24T07:39:33.421Z,1026.28
2017-03-24T07:40:33.452Z,1026.2
2017-03-24T07:41:33.482Z,1026.17
2017-03-24T07:42:33.513Z,1026.2
2017-03-24T07:43:33.545Z,1026.28
2017-03-24T07:44:33.575Z,1026.3
2017-03-24T07:45:33.611Z,1026.31
2017-03-24T07:47:33.669Z,1026.42
2017-03-24T07:48:33.698Z,1026.45
2017-03-24T07:49:33.728Z,1026.46
2017-03-24T07:50:33.759Z,1026.39
2017-03-24T07:51:33.789Z,1026.25
2017-03-24T07:52:33.820Z,1026.18
2017-03-24T07:53:33.850Z,1026.12
2017-03-24T07:54:33.881Z,1026.1
2017-03-24T07:55:33.910Z,1026.1
2017-03-24T07:56:33.940Z,1026.14
2017-03-24T07:57:33.971Z,1026.11
2017-03-24T07:58:34.001Z,1026.11
2017-03-24T07:59:34.031Z,1026.09
2017-03-24T08:00:34.061Z,1026.06
2017-03-24T08:01:34.095Z,1026.08
2017-03-24T08:03:34.150Z,1026.04
2017-03-24T08:04:34.181Z,1026.07
2017-03-24T08:05:34.211Z,1026.06
2017-03-24T08:06:34.240Z,1026.06
2017-03-24T08:07:34.270Z,1026.13
2017-03-24T08:08:34.300Z,1026.1
2017-03-24T08:09:34.330Z,1026.06
2017-03-24T08:10:34.359Z,1026.09
2017-03-24T08:11:34.389Z,1026.06
2017-03-24T08:12:34.419Z,1026
2017-03-24T08:13:34.448Z,1025.98
2017-03-24T08:14:34.478Z,1026.03
2017-03-24T08:15:34.507Z,1025.99
2017-03-24T08:16:34.537Z,1026.02
2017-03-24T08:17:34.565Z,1026.09
2017-03-24T08:19:34.624Z,1026.02
2017-03-24T08:20:34.654Z,1026.05
2017-03-24T08:21:34.681Z,1026.02
2017-03-24T08:22:34.710Z,1026.07
2017-03-24T08:23:34.740Z,1026.03
2017-03-24T08:24:34.769Z,1026.04
2017-03-24T08:25:34.798Z,1026.08
2017-03-24T08:26:34.827Z,1026.03
2017-03-24T08:27:34.856Z,1026.04
2017-03-24T08:28:34.883Z,1026.06
2017-03-24T08:29:34.913Z,1026.03
2017-03-24T08:30:34.942Z,1026.02
2017-03-24T08:31:34.970Z,1026
2017-03-24T08:32:34.999Z,1026.02
2017-03-24T08:34:35.057Z,1026.02
2017-03-24T08:35:35.084Z,1026.05
2017-03-24T08:36:35.113Z,1026.06
2017-03-24T08:37:35.142Z,1026.01
2017-03-24T08:38:35.170Z,1026.07
2017-03-24T08:39:35.198Z,1026.07
2017-03-24T08:40:35.227Z,1026.08
2017-03-24T08:41:35.254Z,1026.06
2017-03-24T08:42:35.282Z,1026.08
2017-03-24T08:43:35.310Z,1026.05
2017-03-24T08:44:35.339Z,1026.02
2017-03-24T08:45:35.367Z,1026.03
2017-03-24T08:46:35.394Z,1026.02
2017-03-24T08:47:35.423Z,1025.98
2017-03-24T08:48:35.451Z,1025.94
2017-03-24T08:49:35.480Z,1025.94
2017-03-24T08:50:35.506Z,1025.96
2017-03-24T08:51:35.535Z,1025.98
2017-03-24T08:52:35.563Z,1025.98
2017-03-24T08:53:35.589Z,1025.97
2017-03-24T08:54:35.618Z,1025.96
2017-03-24T08:55:35.646Z,1025.94
2017-03-24T08:56:35.673Z,1025.92
2017-03-24T08:57:35.702Z,1025.94
2017-03-24T08:58:35.731Z,1025.91
2017-03-24T08:59:35.756Z,1025.93
2017-03-24T09:00:35.785Z,1025.98
2017-03-24T09:01:35.810Z,1025.97
2017-03-24T09:02:35.839Z,1025.99
2017-03-24T09:03:35.866Z,1025.97
2017-03-24T09:04:35.893Z,1025.98
2017-03-24T09:06:35.949Z,1025.99
2017-03-24T09:07:35.977Z,1026.03
2017-03-24T09:08:36.004Z,1026.04
2017-03-24T09:09:36.032Z,1026.04
2017-03-24T09:10:36.060Z,1026.02
2017-03-24T09:11:36.087Z,1026.02
2017-03-24T09:12:36.115Z,1026.02
2017-03-24T09:13:36.142Z,1026.01
2017-03-24T09:14:36.170Z,1025.96
2017-03-24T09:15:36.199Z,1026
2017-03-24T09:16:36.225Z,1026.03
2017-03-24T09:17:36.253Z,1026
2017-03-24T09:18:36.281Z,1026.07
2017-03-24T09:19:36.307Z,1026.05
2017-03-24T09:20:36.335Z,1026.02
2017-03-24T09:22:36.390Z,1026.02
2017-03-24T09:23:36.416Z,1026.04
2017-03-24T09:24:36.445Z,1026.04
2017-03-24T09:25:36.472Z,1026.05
2017-03-24T09:26:36.498Z,1026.08
2017-03-24T09:27:36.526Z,1026.03
2017-03-24T09:28:36.553Z,1026.02
2017-03-24T09:29:36.582Z,1026.04
2017-03-24T09:30:36.608Z,1026.03
2017-03-24T09:31:36.636Z,1026.01
2017-03-24T09:32:36.663Z,1026.02
2017-03-24T09:33:36.691Z,1026.04
2017-03-24T09:34:36.720Z,1026.06
2017-03-24T09:35:36.745Z,1026.08
2017-03-24T09:36:36.773Z,1026.07
2017-03-24T09:38:36.827Z,1026.17
2017-03-24T09:39:36.854Z,1026.18
2017-03-24T09:40:36.885Z,1026.17
2017-03-24T09:41:36.909Z,1026.16
2017-03-24T09:42:36.935Z,1026.12
2017-03-24T09:43:36.962Z,1026.14
2017-03-24T09:44:36.990Z,1026.1
2017-03-24T09:45:37.017Z,1026.12
2017-03-24T09:46:37.044Z,1026.14
2017-03-24T09:47:37.071Z,1026.12
2017-03-24T09:48:37.098Z,1026.13
2017-03-24T09:49:37.124Z,1026.15
2017-03-24T09:50:37.151Z,1026.08
2017-03-24T09:51:37.178Z,1026.15
2017-03-24T09:52:37.204Z,1026.13
2017-03-24T09:54:37.260Z,1026.07
2017-03-24T09:55:37.286Z,1026.08
2017-03-24T09:56:37.312Z,1026.05
2017-03-24T09:57:37.338Z,1026.02
2017-03-24T09:58:37.366Z,1026.08
2017-03-24T09:59:37.391Z,1026.05
2017-03-24T10:00:37.419Z,1026.01
2017-03-24T10:01:37.445Z,1026.09
2017-03-24T10:02:37.473Z,1026.06
2017-03-24T10:03:37.498Z,1026.01
2017-03-24T10:04:37.525Z,1026.08
2017-03-24T10:05:37.552Z,1026
2017-03-24T10:06:37.579Z,1026.03
2017-03-24T10:07:37.605Z,1026.03
2017-03-24T10:09:37.659Z,1026.05
2017-03-24T10:10:37.684Z,1026.08
2017-03-24T10:11:37.712Z,1026.08
2017-03-24T10:12:37.738Z,1026.08
2017-03-24T10:13:37.764Z,1026.11
2017-03-24T10:14:37.790Z,1026.12
2017-03-24T10:15:37.816Z,1026.07
2017-03-24T10:16:37.844Z,1026.1
2017-03-24T10:17:37.868Z,1026.13
2017-03-24T10:18:37.895Z,1026.13
2017-03-24T10:19:37.922Z,1026.13
2017-03-24T10:20:37.948Z,1026.16
2017-03-24T10:21:37.973Z,1026.17
2017-03-24T10:22:38.002Z,1026.19
2017-03-24T10:23:38.026Z,1026.18
2017-03-24T10:24:38.056Z,1026.16
2017-03-24T10:25:38.077Z,1026.22
2017-03-24T10:26:38.108Z,1026.21
2017-03-24T10:27:38.130Z,1026.18
2017-03-24T10:28:38.155Z,1026.23
2017-03-24T10:29:38.181Z,1026.22
2017-03-24T10:30:38.207Z,1026.27
2017-03-24T10:31:38.233Z,1026.25
2017-03-24T10:32:38.262Z,1026.26
2017-03-24T10:33:38.284Z,1026.23
2017-03-24T10:34:38.310Z,1026.3
2017-03-24T10:35:38.335Z,1026.25
2017-03-24T10:36:38.361Z,1026.32
2017-03-24T10:37:38.386Z,1026.3
2017-03-24T10:38:38.411Z,1026.35
2017-03-24T10:39:38.437Z,1026.34
2017-03-24T10:41:38.488Z,1026.34
2017-03-24T10:42:38.512Z,1026.35
2017-03-24T10:43:38.537Z,1026.36
2017-03-24T10:44:38.563Z,1026.4
2017-03-24T10:45:38.587Z,1026.49
2017-03-24T10:46:38.613Z,1026.42
2017-03-24T10:47:38.637Z,1026.36
2017-03-24T10:48:38.662Z,1026.38
2017-03-24T10:49:38.687Z,1026.36
2017-03-24T10:50:38.711Z,1026.3
2017-03-24T10:51:38.736Z,1026.33
2017-03-24T10:52:38.761Z,1026.36
2017-03-24T10:53:38.786Z,1026.32
2017-03-24T10:54:38.811Z,1026.33
2017-03-24T10:55:38.834Z,1026.38
2017-03-24T10:57:38.884Z,1026.31
2017-03-24T10:58:38.907Z,1026.32
2017-03-24T10:59:38.933Z,1026.31
2017-03-24T11:00:38.957Z,1026.3
2017-03-24T11:01:38.981Z,1026.3
2017-03-24T11:02:39.005Z,1026.23
2017-03-24T11:03:39.033Z,1026.25
2017-03-24T11:04:39.055Z,1026.22
2017-03-24T11:05:39.079Z,1026.23
2017-03-24T11:06:39.103Z,1026.24
2017-03-24T11:07:39.128Z,1026.24
2017-03-24T11:08:39.152Z,1026.21
2017-03-24T11:09:39.176Z,1026.24
2017-03-24T11:10:39.200Z,1026.26
2017-03-24T11:11:39.225Z,1026.31
2017-03-24T11:13:39.272Z,1026.42
2017-03-24T11:14:39.297Z,1026.41
2017-03-24T11:15:39.322Z,1026.41
2017-03-24T11:16:39.345Z,1026.45
2017-03-24T11:17:39.369Z,1026.46
2017-03-24T11:18:39.394Z,1026.47
2017-03-24T11:19:39.418Z,1026.47
2017-03-24T11:20:39.441Z,1026.5
2017-03-24T11:21:39.466Z,1026.51
2017-03-24T11:22:39.493Z,1026.46
2017-03-24T11:23:39.513Z,1026.53
2017-03-24T11:24:39.538Z,1026.44
2017-03-24T11:25:39.562Z,1026.46
2017-03-24T11:26:39.587Z,1026.44
2017-03-24T11:27:39.610Z,1026.53
2017-03-24T11:29:39.658Z,1026.45
2017-03-24T11:30:39.682Z,1026.52
2017-03-24T11:31:39.710Z,1026.47
2017-03-24T11:32:39.730Z,1026.44
2017-03-24T11:33:39.753Z,1026.39
2017-03-24T11:34:39.778Z,1026.4
2017-03-24T11:35:39.801Z,1026.44
2017-03-24T11:36:39.826Z,1026.42
2017-03-24T11:37:39.850Z,1026.47
2017-03-24T11:38:39.873Z,1026.42
2017-03-24T11:39:39.897Z,1026.44
2017-03-24T11:40:39.921Z,1026.47
2017-03-24T11:41:39.946Z,1026.49
2017-03-24T11:42:39.970Z,1026.43
2017-03-24T11:44:40.018Z,1026.48
2017-03-24T11:45:40.042Z,1026.52
2017-03-24T11:46:40.065Z,1026.49
2017-03-24T11:47:40.089Z,1026.5
2017-03-24T11:48:40.114Z,1026.54
2017-03-24T11:49:40.137Z,1026.48
2017-03-24T11:50:40.161Z,1026.46
2017-03-24T11:51:40.185Z,1026.43
2017-03-24T11:52:40.208Z,1026.42
2017-03-24T11:53:40.232Z,1026.42
2017-03-24T11:54:40.255Z,1026.39
2017-03-24T11:55:40.279Z,1026.43
2017-03-24T11:56:40.303Z,1026.42
2017-03-24T11:57:40.327Z,1026.48
2017-03-24T11:58:40.351Z,1026.47
2017-03-24T11:59:40.375Z,1026.44
2017-03-24T12:00:40.397Z,1026.43
2017-03-24T12:01:40.422Z,1026.45
2017-03-24T12:02:40.446Z,1026.44
2017-03-24T12:03:40.468Z,1026.44
2017-03-24T12:04:40.493Z,1026.4
2017-03-24T12:05:40.517Z,1026.34
2017-03-24T12:06:40.541Z,1026.34
2017-03-24T12:07:40.564Z,1026.32
2017-03-24T12:08:40.587Z,1026.3
2017-03-24T12:09:40.612Z,1026.37
2017-03-24T12:10:40.636Z,1026.33
2017-03-24T12:11:40.658Z,1026.31
2017-03-24T12:12:40.683Z,1026.3
2017-03-24T12:13:40.710Z,1026.31
2017-03-24T12:14:40.729Z,1026.28
2017-03-24T12:16:40.778Z,1026.31
2017-03-24T12:17:40.801Z,1026.26
2017-03-24T12:18:40.829Z,1026.24
2017-03-24T12:19:40.849Z,1026.25
2017-03-24T12:20:40.872Z,1026.24
2017-03-24T12:21:40.895Z,1026.26
2017-03-24T12:22:40.919Z,1026.25
2017-03-24T12:23:40.943Z,1026.21
2017-03-24T12:24:40.967Z,1026.11
2017-03-24T12:25:40.990Z,1026.18
2017-03-24T12:26:41.013Z,1026.18
2017-03-24T12:27:41.038Z,1026.22
2017-03-24T12:28:41.062Z,1026.17
2017-03-24T12:29:41.084Z,1026.2
2017-03-24T12:30:41.109Z,1026.16
2017-03-24T12:32:41.156Z,1026.15
2017-03-24T12:33:41.179Z,1026.09
2017-03-24T12:34:41.203Z,1026.09
2017-03-24T12:35:41.226Z,1026.09
2017-03-24T12:36:41.250Z,1026.12
2017-03-24T12:37:41.279Z,1026.06
2017-03-24T12:38:41.297Z,1026.07
2017-03-24T12:39:41.322Z,1026.03
2017-03-24T12:40:41.344Z,1026.09
2017-03-24T12:41:41.368Z,1026.09
2017-03-24T12:42:41.392Z,1026.07
2017-03-24T12:43:41.416Z,1026.11
2017-03-24T12:44:41.439Z,1026.05
2017-03-24T12:45:41.462Z,1026.05
2017-03-24T12:46:41.485Z,1026.05
2017-03-24T12:48:41.533Z,1026.02
2017-03-24T12:49:41.558Z,1026.04